MUC | München Airways

 METAR UND TAF INFORMATION

METAR FOR LIPY
ADDS - METARS form results

(0858 UTC 22 March 2019)
Data provider http://aviationweather.gov/metar/data/
 
Forecast for: LIPY (FALCONARA (IT-AF, IT)
Text: TAF LIPY 220500Z 2206/2306 32010KT CAVOK
Forecast period: 0600 UTC 22 March 2019 to 0600 UTC 23 March 2019
Forecast type: FROM: standard forecast or significant change
Winds: from the NW (320 degrees) at 12 MPH (10 knots; 5.1 m/s)
Visibility: 6 or more miles 10+ km)
Ceiling: unknown
Clouds: missing
Weather: NSW  (no significant weather)

 FLUGHAFENKARTE

 RUNWAY INFORMATION
Runway 04 Runway length 9718 ft Runway width 148 ft
Runway elevation 47 ft Runway displaced threshold 641 ft Runway heading 45
Runway 22 Runway length 9718 ft Runway width 148 ft
Runway elevation 29 ft Runway displaced threshold 492 ft Runway heading 225

 AIRPORT FREQUENCIES
Type APP Name ROMAGNA AP Frequency 118.15 MHZ
Type APP Name ROMAGNA AP Frequency 37.975 MHZ
Type ATIS Name ATIS Frequency 122.85 MHZ
Type TWR Name TWR Frequency 119.8 MHZ

 AIRPORT NEAR NAVIGATION AIDS
Type VOR-DME Name Ancona Frequency 110650 KHZ
Type NDB Name Ancona Frequency 375 KHZ
Type TACAN Name Falconara Frequency 109800 KHZ
Type NDB Name Falconara Frequency 358 KHZ